createdAt,value
2023-05-22T00:00:12.323Z,84.57
2023-05-22T00:01:12.327Z,84.27
2023-05-22T00:02:12.421Z,84.27
2023-05-22T00:03:12.453Z,84.27
2023-05-22T00:04:12.337Z,84.47
2023-05-22T00:05:12.202Z,84.27
2023-05-22T00:06:12.337Z,84.41
2023-05-22T00:07:12.365Z,84.97
2023-05-22T00:08:12.267Z,84.51
2023-05-22T00:09:12.284Z,85.02
2023-05-22T00:10:12.316Z,85.31
2023-05-22T00:11:12.338Z,85.31
2023-05-22T00:12:12.274Z,85.31
2023-05-22T00:13:12.210Z,86.13
2023-05-22T00:14:12.223Z,86.02
2023-05-22T00:15:12.154Z,85.72
2023-05-22T00:16:12.275Z,86.02
2023-05-22T00:17:12.303Z,85.93
2023-05-22T00:18:12.032Z,86.53
2023-05-22T00:19:12.262Z,86.53
2023-05-22T00:20:11.988Z,85.82
2023-05-22T00:21:12.191Z,85.52
2023-05-22T00:22:12.232Z,85.86
2023-05-22T00:23:13.828Z,86.16
2023-05-22T00:24:12.057Z,86.47
2023-05-22T00:25:11.977Z,86.47
2023-05-22T00:26:11.927Z,86.07
2023-05-22T00:27:12.046Z,86.07
2023-05-22T00:28:12.064Z,86.37
2023-05-22T00:29:12.127Z,86.57
2023-05-22T00:30:12.067Z,86.57
2023-05-22T00:31:12.023Z,86.37
2023-05-22T00:32:11.984Z,86.21
2023-05-22T00:33:11.864Z,86.10
2023-05-22T00:34:12.144Z,86.31
2023-05-22T00:35:11.956Z,86.61
2023-05-22T00:36:11.987Z,86.51
2023-05-22T00:37:12.006Z,86.41
2023-05-22T00:38:12.126Z,85.80
2023-05-22T00:39:11.974Z,85.39
2023-05-22T00:40:11.998Z,85.39
2023-05-22T00:41:11.985Z,85.30
2023-05-22T00:42:11.987Z,84.99
2023-05-22T00:43:11.948Z,84.89
2023-05-22T00:44:12.030Z,84.75
2023-05-22T00:45:11.927Z,84.79
2023-05-22T00:46:11.932Z,84.75
2023-05-22T00:47:11.916Z,84.55
2023-05-22T00:48:11.697Z,84.95
2023-05-22T00:49:11.965Z,84.65
2023-05-22T00:50:11.875Z,84.59
2023-05-22T00:51:11.874Z,84.69
2023-05-22T00:52:11.861Z,84.55
2023-05-22T00:53:11.864Z,84.65
2023-05-22T00:54:11.943Z,84.48
2023-05-22T00:55:11.949Z,85.05
2023-05-22T00:56:11.730Z,84.79
2023-05-22T00:57:11.748Z,84.79
2023-05-22T00:58:11.711Z,84.59
2023-05-22T00:59:11.808Z,83.98
2023-05-22T01:00:11.688Z,83.98
2023-05-22T01:01:11.824Z,84.28
2023-05-22T01:02:11.789Z,84.39
2023-05-22T01:03:11.807Z,85.19
2023-05-22T01:04:11.694Z,84.79
2023-05-22T01:05:11.707Z,84.59
2023-05-22T01:06:11.733Z,85.19
2023-05-22T01:07:11.667Z,84.89
2023-05-22T01:08:11.725Z,84.48
2023-05-22T01:09:11.631Z,85.60
2023-05-22T01:10:11.609Z,85.39
2023-05-22T01:11:11.476Z,85.80
2023-05-22T01:12:11.661Z,86.10
2023-05-22T01:13:11.577Z,85.90
2023-05-22T01:14:11.575Z,85.90
2023-05-22T01:15:11.384Z,85.84
2023-05-22T01:16:11.527Z,85.50
2023-05-22T01:17:11.634Z,85.19
2023-05-22T01:18:11.615Z,85.24
2023-05-22T01:19:11.581Z,86.05
2023-05-22T01:20:11.470Z,86.76
2023-05-22T01:21:11.471Z,87.05
2023-05-22T01:22:11.542Z,87.26
2023-05-22T01:23:11.585Z,87.77
2023-05-22T01:24:11.504Z,87.97
2023-05-22T01:25:11.445Z,87.66
2023-05-22T01:26:11.466Z,87.66
2023-05-22T01:27:11.551Z,87.87
2023-05-22T01:28:11.425Z,87.77
2023-05-22T01:29:11.439Z,87.66
2023-05-22T01:30:11.368Z,88.07
2023-05-22T01:31:11.529Z,88.27
2023-05-22T01:32:11.409Z,88.27
2023-05-22T01:33:11.484Z,88.37
2023-05-22T01:34:11.370Z,88.68
2023-05-22T01:35:11.300Z,88.78
2023-05-22T01:36:11.316Z,88.68
2023-05-22T01:37:11.329Z,88.57
2023-05-22T01:38:11.400Z,88.57
2023-05-22T01:39:11.272Z,88.51
2023-05-22T01:40:11.303Z,88.27
2023-05-22T01:41:11.281Z,88.37
2023-05-22T01:42:11.265Z,87.91
2023-05-22T01:43:11.255Z,88.17
2023-05-22T01:44:11.313Z,88.72
2023-05-22T01:45:11.230Z,89.02
2023-05-22T01:46:11.381Z,89.02
2023-05-22T01:47:11.234Z,89.32
2023-05-22T01:48:11.223Z,89.43
2023-05-22T01:49:11.220Z,89.23
2023-05-22T01:50:11.208Z,89.23
2023-05-22T01:51:11.275Z,89.23
2023-05-22T01:52:11.193Z,89.12
2023-05-22T01:53:11.174Z,89.63
2023-05-22T01:54:11.173Z,89.73
2023-05-22T01:55:11.254Z,89.53
2023-05-22T01:56:11.093Z,89.43
2023-05-22T01:57:11.091Z,89.23
2023-05-22T01:58:11.101Z,89.02
2023-05-22T01:59:11.107Z,89.02
2023-05-22T02:00:10.978Z,88.62
2023-05-22T02:01:11.147Z,89.12
2023-05-22T02:02:11.092Z,89.63
2023-05-22T02:03:11.132Z,89.12
2023-05-22T02:04:11.082Z,88.82
2023-05-22T02:05:11.006Z,88.92
2023-05-22T02:06:11.094Z,89.73
2023-05-22T02:07:12.234Z,89.87
2023-05-22T02:08:11.095Z,89.53
2023-05-22T02:09:11.002Z,89.37
2023-05-22T02:10:11.015Z,89.57
2023-05-22T02:11:11.166Z,89.77
2023-05-22T02:12:11.029Z,89.67
2023-05-22T02:13:10.976Z,89.87
2023-05-22T02:14:11.001Z,89.98
2023-05-22T02:15:10.895Z,89.77
2023-05-22T02:16:11.058Z,89.77
2023-05-22T02:17:10.917Z,89.98
2023-05-22T02:18:11.077Z,89.98
2023-05-22T02:19:10.933Z,89.77
2023-05-22T02:20:10.885Z,90.08
2023-05-22T02:21:10.894Z,89.87
2023-05-22T02:22:10.902Z,89.77
2023-05-22T02:23:10.886Z,89.98
2023-05-22T02:24:10.889Z,89.92
2023-05-22T02:25:10.832Z,89.51
2023-05-22T02:26:10.921Z,89.31
2023-05-22T02:27:10.838Z,89.72
2023-05-22T02:28:10.836Z,89.81
2023-05-22T02:29:10.720Z,90.22
2023-05-22T02:30:10.817Z,90.53
2023-05-22T02:31:10.889Z,90.22
2023-05-22T02:32:10.774Z,90.62
2023-05-22T02:33:10.882Z,91.03
2023-05-22T02:34:10.715Z,91.03
2023-05-22T02:35:10.762Z,90.93
2023-05-22T02:36:10.715Z,90.62
2023-05-22T02:37:10.796Z,90.62
2023-05-22T02:38:10.664Z,90.88
2023-05-22T02:39:10.674Z,91.13
2023-05-22T02:40:10.680Z,91.24
2023-05-22T02:41:10.640Z,90.77
2023-05-22T02:42:10.570Z,90.47
2023-05-22T02:43:10.754Z,90.88
2023-05-22T02:44:10.691Z,90.67
2023-05-22T02:45:10.639Z,90.57
2023-05-22T02:46:10.649Z,90.88
2023-05-22T02:47:10.657Z,90.97
2023-05-22T02:48:10.744Z,90.88
2023-05-22T02:49:10.414Z,90.97
2023-05-22T02:50:10.584Z,91.28
2023-05-22T02:51:10.486Z,91.48
2023-05-22T02:52:10.490Z,91.63
2023-05-22T02:53:10.503Z,91.63
2023-05-22T02:54:10.569Z,91.63
2023-05-22T02:55:10.384Z,91.42
2023-05-22T02:56:10.483Z,91.52
2023-05-22T02:57:10.469Z,91.73
2023-05-22T02:58:10.456Z,91.63
2023-05-22T02:59:10.498Z,91.93
2023-05-22T03:00:10.325Z,92.24
2023-05-22T03:01:10.391Z,92.03
2023-05-22T03:02:10.427Z,91.93
2023-05-22T03:03:10.446Z,91.93
2023-05-22T03:04:10.469Z,91.73
2023-05-22T03:05:10.469Z,91.42
2023-05-22T03:06:10.350Z,91.63
2023-05-22T03:07:10.355Z,91.93
2023-05-22T03:08:10.348Z,92.03
2023-05-22T03:09:10.424Z,91.87
2023-05-22T03:10:10.411Z,91.93
2023-05-22T03:11:10.263Z,92.33
2023-05-22T03:12:10.187Z,92.54
2023-05-22T03:13:10.281Z,92.38
2023-05-22T03:14:10.258Z,92.28
2023-05-22T03:15:10.345Z,92.68
2023-05-22T03:16:10.264Z,92.28
2023-05-22T03:17:10.296Z,92.28
2023-05-22T03:18:10.259Z,91.97
2023-05-22T03:19:10.254Z,92.28
2023-05-22T03:20:10.225Z,92.99
2023-05-22T03:21:10.263Z,92.79
2023-05-22T03:22:10.192Z,92.79
2023-05-22T03:23:10.124Z,93.09
2023-05-22T03:24:10.147Z,92.89
2023-05-22T03:25:10.246Z,92.79
2023-05-22T03:26:10.173Z,92.89
2023-05-22T03:27:10.100Z,93.09
2023-05-22T03:28:10.210Z,93.19
2023-05-22T03:29:10.217Z,93.19
2023-05-22T03:30:10.190Z,93.19
2023-05-22T03:31:10.177Z,93.09
2023-05-22T03:32:10.098Z,93.09
2023-05-22T03:33:10.502Z,92.99
2023-05-22T03:34:10.117Z,92.89
2023-05-22T03:35:10.152Z,92.79
2023-05-22T03:36:09.912Z,93.29
2023-05-22T03:37:09.912Z,93.09
2023-05-22T03:38:09.979Z,93.19
2023-05-22T03:39:09.986Z,93.29
2023-05-22T03:40:09.971Z,93.09
2023-05-22T03:41:09.966Z,92.99
2023-05-22T03:42:10.030Z,92.99
2023-05-22T03:43:09.944Z,92.58
2023-05-22T03:44:09.929Z,92.79
2023-05-22T03:45:09.883Z,92.89
2023-05-22T03:46:09.918Z,92.89
2023-05-22T03:47:09.894Z,92.68
2023-05-22T03:48:10.051Z,92.58
2023-05-22T03:49:09.919Z,93.29
2023-05-22T03:50:09.932Z,93.09
2023-05-22T03:51:09.845Z,92.68
2023-05-22T03:52:09.872Z,92.58
2023-05-22T03:53:09.957Z,92.58
2023-05-22T03:54:09.880Z,92.79
2023-05-22T03:55:09.813Z,93.19
2023-05-22T03:56:09.832Z,93.19
2023-05-22T03:57:09.732Z,92.99
2023-05-22T03:58:09.930Z,92.79
2023-05-22T03:59:09.802Z,93.19
2023-05-22T04:00:09.877Z,93.40
2023-05-22T04:01:09.778Z,93.09
2023-05-22T04:02:09.754Z,92.79
2023-05-22T04:03:09.806Z,92.07
2023-05-22T04:04:09.844Z,91.36
2023-05-22T04:05:09.793Z,91.36
2023-05-22T04:06:09.752Z,91.26
2023-05-22T04:07:09.720Z,91.47
2023-05-22T04:08:09.694Z,91.77
2023-05-22T04:09:09.700Z,91.87
2023-05-22T04:10:09.781Z,92.07
2023-05-22T04:11:09.697Z,91.77
2023-05-22T04:12:09.491Z,91.36
2023-05-22T04:13:09.663Z,92.07
2023-05-22T04:14:09.688Z,91.87
2023-05-22T04:15:09.706Z,91.16
2023-05-22T04:16:09.721Z,92.07
2023-05-22T04:17:09.628Z,91.97
2023-05-22T04:18:09.502Z,91.93
2023-05-22T04:19:09.554Z,92.07
2023-05-22T04:20:09.597Z,92.07
2023-05-22T04:21:09.608Z,91.87
2023-05-22T04:22:09.388Z,91.93
2023-05-22T04:23:09.512Z,91.93
2023-05-22T04:24:09.418Z,92.03
2023-05-22T04:25:09.528Z,92.03
2023-05-22T04:26:09.380Z,91.63
2023-05-22T04:27:09.420Z,91.63
2023-05-22T04:28:09.527Z,91.73
2023-05-22T04:29:09.317Z,91.42
2023-05-22T04:30:09.336Z,91.52
2023-05-22T04:31:09.367Z,91.48
2023-05-22T04:32:09.417Z,91.48
2023-05-22T04:33:09.554Z,91.38
2023-05-22T04:34:09.415Z,90.57
2023-05-22T04:35:09.408Z,90.47
2023-05-22T04:36:11.029Z,90.36
2023-05-22T04:37:09.501Z,90.62
2023-05-22T04:38:09.489Z,90.22
2023-05-22T04:39:09.310Z,90.02
2023-05-22T04:40:09.401Z,90.12
2023-05-22T04:41:09.397Z,89.81
2023-05-22T04:42:09.354Z,89.67
2023-05-22T04:43:09.295Z,89.47
2023-05-22T04:44:09.289Z,89.17
2023-05-22T04:45:09.327Z,88.76
2023-05-22T04:46:09.414Z,88.86
2023-05-22T04:47:09.421Z,88.76
2023-05-22T04:48:09.473Z,88.66
2023-05-22T04:49:09.312Z,88.11
2023-05-22T04:50:09.340Z,87.81
2023-05-22T04:51:09.227Z,87.91
2023-05-22T04:52:09.256Z,87.60
2023-05-22T04:53:09.103Z,87.20
2023-05-22T04:54:09.157Z,86.96
2023-05-22T04:55:09.192Z,86.76
2023-05-22T04:56:09.245Z,86.41
2023-05-22T04:57:09.184Z,85.80
2023-05-22T04:58:09.284Z,84.91
2023-05-22T04:59:09.635Z,84.11
2023-05-22T05:00:09.083Z,83.26
2023-05-22T05:01:09.278Z,83.26
2023-05-22T05:02:09.120Z,83.26
2023-05-22T05:03:09.151Z,83.40
2023-05-22T05:04:09.018Z,83.70
2023-05-22T05:05:09.116Z,83.56
2023-05-22T05:06:08.978Z,83.46
2023-05-22T05:07:08.919Z,83.36
2023-05-22T05:08:09.108Z,83.26
2023-05-22T05:09:09.059Z,83.22
2023-05-22T05:10:09.084Z,82.81
2023-05-22T05:11:09.096Z,82.81
2023-05-22T05:12:09.105Z,82.51
2023-05-22T05:13:08.875Z,82.07
2023-05-22T05:14:08.947Z,81.12
2023-05-22T05:15:08.842Z,80.24
2023-05-22T05:16:08.880Z,78.59
2023-05-22T05:17:09.001Z,77.55
2023-05-22T05:18:09.051Z,76.70
2023-05-22T05:19:09.051Z,75.72
2023-05-22T05:20:09.037Z,74.72
2023-05-22T05:21:08.967Z,74.48
2023-05-22T05:22:08.803Z,74.38
2023-05-22T05:23:08.739Z,74.48
2023-05-22T05:24:09.024Z,74.18
2023-05-22T05:25:10.939Z,73.78
2023-05-22T05:26:09.011Z,73.44
2023-05-22T05:27:08.878Z,73.00
2023-05-22T05:28:08.897Z,72.10
2023-05-22T05:29:08.808Z,71.86
2023-05-22T05:30:08.834Z,70.16
2023-05-22T05:31:08.884Z,70.32
2023-05-22T05:32:08.884Z,69.69
2023-05-22T05:33:08.805Z,68.59
2023-05-22T05:34:08.852Z,69.32
2023-05-22T05:35:08.664Z,69.39
2023-05-22T05:36:08.819Z,69.39
2023-05-22T05:37:08.678Z,69.29
2023-05-22T05:38:08.619Z,69.39
2023-05-22T05:39:08.582Z,68.89
2023-05-22T05:40:08.590Z,68.79
2023-05-22T05:41:08.594Z,68.89
2023-05-22T05:42:08.535Z,68.69
2023-05-22T05:43:09.320Z,68.65
2023-05-22T05:44:08.534Z,67.39
2023-05-22T05:45:08.526Z,65.92
2023-05-22T05:46:08.559Z,64.12
2023-05-22T05:47:08.484Z,64.92
2023-05-22T05:48:08.524Z,64.92
2023-05-22T05:49:08.502Z,64.83
2023-05-22T05:50:08.477Z,65.05
2023-05-22T05:51:08.541Z,64.75
2023-05-22T05:52:08.502Z,65.89
2023-05-22T05:53:08.413Z,66.16
2023-05-22T05:54:08.406Z,65.52
2023-05-22T05:55:08.424Z,64.72
2023-05-22T05:56:08.451Z,65.02
2023-05-22T05:57:08.431Z,65.05
2023-05-22T05:58:08.373Z,65.48
2023-05-22T05:59:08.389Z,65.55
2023-05-22T06:00:08.416Z,65.09
2023-05-22T06:01:08.442Z,65.78
2023-05-22T06:02:08.435Z,65.59
2023-05-22T06:03:08.610Z,65.86
2023-05-22T06:04:08.324Z,66.25
2023-05-22T06:05:08.410Z,65.69
2023-05-22T06:06:08.368Z,66.59
2023-05-22T06:07:08.322Z,66.28
2023-05-22T06:08:08.340Z,66.09
2023-05-22T06:09:08.294Z,66.28
2023-05-22T06:10:08.332Z,65.75
2023-05-22T06:11:08.315Z,65.75
2023-05-22T06:12:08.231Z,65.52
2023-05-22T06:13:08.327Z,65.42
2023-05-22T06:14:08.235Z,65.33
2023-05-22T06:15:08.393Z,65.12
2023-05-22T06:16:08.447Z,64.69
2023-05-22T06:17:08.444Z,64.69
2023-05-22T06:18:08.358Z,64.16
2023-05-22T06:19:08.313Z,63.73
2023-05-22T06:20:08.180Z,63.13
2023-05-22T06:21:08.223Z,63.20
2023-05-22T06:22:08.136Z,63.00
2023-05-22T06:23:08.165Z,62.70
2023-05-22T06:24:08.125Z,63.40
2023-05-22T06:25:08.200Z,62.77
2023-05-22T06:26:08.108Z,63.07
2023-05-22T06:27:08.086Z,62.24
2023-05-22T06:28:08.085Z,61.44
2023-05-22T06:29:08.067Z,61.15
2023-05-22T06:30:08.108Z,61.65
2023-05-22T06:31:08.060Z,61.35
2023-05-22T06:32:08.122Z,61.25
2023-05-22T06:33:08.178Z,61.11
2023-05-22T06:34:08.213Z,61.02
2023-05-22T06:35:07.977Z,61.65
2023-05-22T06:36:08.009Z,62.57
2023-05-22T06:37:07.992Z,63.07
2023-05-22T06:38:07.960Z,62.18
2023-05-22T06:39:07.943Z,62.24
2023-05-22T06:40:07.948Z,62.54
2023-05-22T06:41:08.004Z,62.67
2023-05-22T06:42:07.965Z,63.37
2023-05-22T06:43:07.954Z,63.10
2023-05-22T06:44:07.961Z,63.93
2023-05-22T06:45:07.917Z,64.63
2023-05-22T06:46:07.941Z,64.00
2023-05-22T06:47:07.903Z,63.67
2023-05-22T06:48:07.924Z,62.97
2023-05-22T06:49:07.880Z,63.17
2023-05-22T06:50:07.894Z,63.57
2023-05-22T06:51:07.842Z,63.37
2023-05-22T06:52:07.851Z,63.47
2023-05-22T06:53:07.833Z,63.37
2023-05-22T06:54:07.857Z,63.17
2023-05-22T06:55:07.829Z,63.37
2023-05-22T06:56:07.809Z,63.17
2023-05-22T06:57:07.781Z,63.70
2023-05-22T06:58:07.784Z,63.63
2023-05-22T06:59:07.776Z,63.96
2023-05-22T07:00:07.777Z,64.09
2023-05-22T07:01:07.874Z,65.42
2023-05-22T07:02:07.806Z,65.33
2023-05-22T07:03:07.803Z,65.83
2023-05-22T07:04:07.726Z,66.75
2023-05-22T07:05:07.769Z,66.86
2023-05-22T07:06:07.828Z,66.52
2023-05-22T07:07:07.700Z,66.42
2023-05-22T07:08:07.652Z,64.12
2023-05-22T07:09:07.714Z,64.79
2023-05-22T07:10:07.667Z,64.69
2023-05-22T07:11:07.715Z,64.09
2023-05-22T07:12:07.725Z,63.89
2023-05-22T07:13:07.670Z,64.62
2023-05-22T07:14:07.692Z,64.09
2023-05-22T07:15:07.625Z,64.39
2023-05-22T07:16:07.680Z,64.19
2023-05-22T07:17:07.557Z,64.62
2023-05-22T07:18:07.612Z,64.42
2023-05-22T07:19:07.697Z,65.16
2023-05-22T07:20:07.665Z,65.12
2023-05-22T07:21:07.679Z,65.02
2023-05-22T07:22:07.558Z,64.62
2023-05-22T07:23:07.617Z,64.62
2023-05-22T07:24:07.549Z,64.83
2023-05-22T07:25:07.560Z,64.83
2023-05-22T07:26:07.620Z,65.12
2023-05-22T07:27:07.678Z,64.72
2023-05-22T07:28:07.469Z,65.09
2023-05-22T07:29:07.605Z,65.09
2023-05-22T07:30:07.709Z,64.99
2023-05-22T07:31:07.548Z,65.19
2023-05-22T07:32:07.476Z,64.66
2023-05-22T07:33:07.604Z,64.19
2023-05-22T07:34:07.477Z,64.59
2023-05-22T07:35:07.529Z,65.29
2023-05-22T07:36:07.441Z,65.29
2023-05-22T07:37:07.571Z,64.96
2023-05-22T07:38:07.537Z,64.49
2023-05-22T07:39:07.483Z,64.99
2023-05-22T07:40:07.712Z,65.59
2023-05-22T07:41:07.420Z,64.79
2023-05-22T07:42:07.458Z,65.39
2023-05-22T07:43:07.658Z,64.36
2023-05-22T07:44:07.433Z,64.69
2023-05-22T07:45:07.472Z,64.86
2023-05-22T07:46:07.480Z,65.06
2023-05-22T07:47:07.438Z,64.56
2023-05-22T07:48:07.420Z,64.76
2023-05-22T07:49:07.552Z,65.29
2023-05-22T07:50:07.434Z,65.26
2023-05-22T07:51:07.400Z,64.66
2023-05-22T07:52:07.367Z,64.86
2023-05-22T07:53:07.406Z,64.53
2023-05-22T07:54:07.353Z,63.73
2023-05-22T07:55:07.327Z,63.93
2023-05-22T07:56:07.235Z,64.03
2023-05-22T07:57:07.311Z,64.53
2023-05-22T07:58:07.320Z,64.03
2023-05-22T07:59:07.339Z,64.33
2023-05-22T08:00:07.287Z,64.33
2023-05-22T08:01:09.410Z,64.83
2023-05-22T08:02:07.121Z,64.96
2023-05-22T08:03:07.223Z,65.13
2023-05-22T08:04:07.309Z,65.53
2023-05-22T08:05:07.220Z,64.10
2023-05-22T08:06:07.062Z,63.57
2023-05-22T08:07:07.119Z,62.97
2023-05-22T08:08:07.203Z,63.57
2023-05-22T08:09:07.103Z,63.27
2023-05-22T08:10:07.076Z,62.74
2023-05-22T08:11:07.234Z,62.41
2023-05-22T08:12:07.500Z,61.22
2023-05-22T08:13:06.978Z,61.29
2023-05-22T08:14:06.994Z,60.79
2023-05-22T08:15:07.066Z,60.76
2023-05-22T08:16:07.007Z,59.86
2023-05-22T08:17:07.053Z,60.13
2023-05-22T08:18:07.003Z,59.70
2023-05-22T08:19:07.012Z,59.61
2023-05-22T08:20:07.134Z,58.71
2023-05-22T08:21:06.955Z,59.23
2023-05-22T08:22:06.929Z,59.96
2023-05-22T08:23:07.060Z,60.03
2023-05-22T08:24:07.049Z,59.34
2023-05-22T08:25:06.920Z,59.41
2023-05-22T08:26:06.870Z,58.58
2023-05-22T08:27:06.938Z,58.65
2023-05-22T08:28:07.003Z,57.96
2023-05-22T08:29:06.986Z,57.86
2023-05-22T08:30:06.972Z,58.48
2023-05-22T08:31:06.962Z,58.39
2023-05-22T08:32:06.864Z,59.34
2023-05-22T08:33:06.841Z,59.64
2023-05-22T08:34:06.781Z,59.11
2023-05-22T08:35:06.791Z,57.96
2023-05-22T08:36:06.825Z,57.60
2023-05-22T08:37:06.933Z,55.82
2023-05-22T08:38:06.800Z,56.12
2023-05-22T08:39:06.794Z,56.51
2023-05-22T08:40:06.749Z,56.09
2023-05-22T08:41:06.902Z,55.19
2023-05-22T08:42:06.723Z,55.29
2023-05-22T08:43:06.683Z,55.76
2023-05-22T08:44:06.805Z,55.04
2023-05-22T08:45:06.764Z,53.68
2023-05-22T08:46:06.675Z,54.70
2023-05-22T08:47:06.740Z,55.02
2023-05-22T08:48:06.732Z,55.77
2023-05-22T08:49:06.629Z,56.27
2023-05-22T08:50:06.625Z,55.15
2023-05-22T08:51:06.666Z,55.12
2023-05-22T08:52:06.568Z,55.00
2023-05-22T08:53:06.578Z,53.78
2023-05-22T08:54:06.556Z,53.51
2023-05-22T08:55:06.581Z,53.91
2023-05-22T08:56:06.552Z,53.78
2023-05-22T08:57:06.554Z,52.89
2023-05-22T08:58:06.534Z,52.66
2023-05-22T08:59:06.619Z,52.94
2023-05-22T09:00:06.576Z,52.41
2023-05-22T09:01:06.590Z,52.51
2023-05-22T09:02:07.073Z,52.09
2023-05-22T09:03:06.564Z,51.00
2023-05-22T09:04:07.406Z,51.67
2023-05-22T09:05:06.485Z,50.98
2023-05-22T09:06:06.448Z,50.53
2023-05-22T09:07:06.465Z,50.16
2023-05-22T09:08:18.996Z,51.15
2023-05-22T09:09:06.459Z,49.99
2023-05-22T09:10:06.451Z,49.30
2023-05-22T09:11:06.409Z,48.68
2023-05-22T09:12:06.433Z,47.85
2023-05-22T09:13:06.410Z,45.75
2023-05-22T09:14:06.364Z,46.12
2023-05-22T09:15:06.351Z,46.34
2023-05-22T09:16:06.345Z,47.72
2023-05-22T09:17:06.411Z,46.25
2023-05-22T09:18:06.467Z,46.64
2023-05-22T09:19:06.389Z,47.21
2023-05-22T09:20:06.343Z,46.89
2023-05-22T09:21:11.353Z,45.88
2023-05-22T09:22:06.338Z,45.07
2023-05-22T09:23:06.322Z,44.85
2023-05-22T09:24:06.284Z,44.88
2023-05-22T09:25:06.333Z,45.93
2023-05-22T09:26:06.267Z,46.03
2023-05-22T09:27:06.241Z,45.41
2023-05-22T09:28:06.240Z,45.41
2023-05-22T09:29:06.211Z,46.10
2023-05-22T09:30:06.255Z,46.89
2023-05-22T09:31:06.301Z,46.12
2023-05-22T09:32:06.175Z,46.54
2023-05-22T09:33:06.243Z,47.77
2023-05-22T09:34:06.202Z,48.51
2023-05-22T09:35:06.210Z,48.41
2023-05-22T09:36:06.151Z,48.90
2023-05-22T09:37:06.124Z,49.10
2023-05-22T09:38:06.143Z,49.18
2023-05-22T09:39:06.125Z,47.55
2023-05-22T09:40:06.108Z,47.09
2023-05-22T09:41:06.105Z,45.19
2023-05-22T09:42:06.100Z,45.93
2023-05-22T09:43:06.088Z,46.03
2023-05-22T09:44:06.059Z,46.30
2023-05-22T09:45:06.109Z,45.41
2023-05-22T09:46:06.200Z,45.59
2023-05-22T09:47:06.043Z,45.65
2023-05-22T09:48:06.119Z,46.44
2023-05-22T09:49:06.038Z,45.73
2023-05-22T09:50:06.097Z,46.56
2023-05-22T09:51:05.993Z,47.60
2023-05-22T09:52:06.023Z,47.77
2023-05-22T09:53:06.014Z,47.65
2023-05-22T09:54:06.011Z,47.06
2023-05-22T09:55:06.034Z,45.95
2023-05-22T09:56:05.973Z,46.12
2023-05-22T09:57:05.962Z,45.46
2023-05-22T09:58:05.976Z,45.85
2023-05-22T09:59:05.937Z,46.15
2023-05-22T10:00:05.977Z,46.25
2023-05-22T10:01:05.957Z,46.48
2023-05-22T10:02:05.983Z,47.38
2023-05-22T10:03:05.969Z,47.18
2023-05-22T10:04:05.965Z,47.31
2023-05-22T10:05:05.866Z,46.26
2023-05-22T10:06:05.892Z,46.96
2023-05-22T10:07:05.839Z,46.03
2023-05-22T10:08:05.894Z,46.34
2023-05-22T10:09:05.852Z,46.04
2023-05-22T10:10:05.870Z,44.65
2023-05-22T10:11:05.832Z,44.65
2023-05-22T10:12:05.823Z,44.92
2023-05-22T10:13:05.805Z,44.26
2023-05-22T10:14:05.936Z,43.14
2023-05-22T10:15:05.788Z,41.63
2023-05-22T10:16:08.411Z,41.92
2023-05-22T10:17:05.827Z,41.45
2023-05-22T10:18:05.833Z,42.55
2023-05-22T10:19:05.799Z,42.49
2023-05-22T10:20:05.795Z,43.38
2023-05-22T10:21:05.728Z,42.96
2023-05-22T10:22:05.717Z,42.52
2023-05-22T10:23:05.720Z,43.16
2023-05-22T10:24:05.714Z,42.69
2023-05-22T10:25:06.119Z,42.59
2023-05-22T10:26:05.697Z,43.40
2023-05-22T10:27:05.784Z,43.01
2023-05-22T10:28:05.792Z,42.06
2023-05-22T10:29:05.674Z,41.80
2023-05-22T10:30:05.666Z,41.71
2023-05-22T10:31:05.623Z,42.43
2023-05-22T10:32:05.658Z,44.26
2023-05-22T10:33:05.706Z,45.27
2023-05-22T10:34:05.807Z,44.85
2023-05-22T10:35:05.628Z,43.63
2023-05-22T10:36:05.637Z,43.24
2023-05-22T10:37:16.669Z,43.52
2023-05-22T10:38:05.615Z,45.21
2023-05-22T10:39:05.572Z,44.51
2023-05-22T10:40:05.577Z,44.70
2023-05-22T10:41:05.567Z,44.80
2023-05-22T10:42:05.549Z,44.58
2023-05-22T10:43:05.512Z,43.95
2023-05-22T10:44:05.499Z,43.24
2023-05-22T10:45:05.574Z,42.81
2023-05-22T10:46:05.649Z,43.60
2023-05-22T10:47:05.695Z,44.29
2023-05-22T10:48:05.536Z,43.79
2023-05-22T10:49:05.512Z,43.75
2023-05-22T10:50:05.479Z,43.87
2023-05-22T10:51:05.447Z,44.62
2023-05-22T10:52:05.492Z,45.41
2023-05-22T10:53:05.432Z,45.04
2023-05-22T10:54:05.533Z,46.56
2023-05-22T10:55:05.391Z,47.16
2023-05-22T10:56:05.407Z,47.55
2023-05-22T10:57:05.494Z,46.86
2023-05-22T10:58:05.474Z,47.79
2023-05-22T10:59:05.574Z,46.59
2023-05-22T11:00:05.527Z,47.40
2023-05-22T11:01:05.379Z,46.98
2023-05-22T11:02:05.493Z,47.28
2023-05-22T11:03:17.276Z,46.96
2023-05-22T11:04:05.384Z,47.03
2023-05-22T11:05:05.388Z,46.47
2023-05-22T11:06:05.297Z,47.38
2023-05-22T11:07:05.537Z,47.47
2023-05-22T11:08:05.331Z,48.04
2023-05-22T11:09:05.307Z,47.43
2023-05-22T11:10:05.339Z,45.26
2023-05-22T11:11:05.393Z,45.26
2023-05-22T11:12:05.391Z,45.26
2023-05-22T11:13:05.396Z,46.15
2023-05-22T11:14:05.313Z,46.48
2023-05-22T11:15:05.289Z,45.57
2023-05-22T11:16:05.210Z,44.79
2023-05-22T11:17:05.228Z,44.29
2023-05-22T11:18:05.470Z,43.70
2023-05-22T11:19:21.288Z,43.51
2023-05-22T11:20:05.766Z,44.59
2023-05-22T11:21:05.163Z,44.59
2023-05-22T11:22:05.220Z,44.89
2023-05-22T11:23:05.238Z,44.98
2023-05-22T11:24:05.209Z,44.89
2023-05-22T11:25:05.151Z,44.29
2023-05-22T11:26:05.086Z,43.70
2023-05-22T11:27:05.093Z,44.10
2023-05-22T11:28:05.114Z,42.91
2023-05-22T11:29:05.115Z,42.99
2023-05-22T11:30:05.045Z,43.38
2023-05-22T11:31:05.107Z,43.37
2023-05-22T11:32:05.047Z,43.66
2023-05-22T11:33:05.065Z,44.07
2023-05-22T11:34:05.120Z,43.01
2023-05-22T11:35:05.091Z,44.10
2023-05-22T11:36:05.082Z,44.39
2023-05-22T11:37:05.022Z,44.57
2023-05-22T11:38:05.106Z,43.09
2023-05-22T11:39:05.186Z,44.07
2023-05-22T11:40:05.196Z,42.77
2023-05-22T11:41:05.202Z,41.12
2023-05-22T11:42:05.140Z,41.61
2023-05-22T11:43:04.957Z,41.24
2023-05-22T11:44:04.984Z,42.14
2023-05-22T11:45:04.949Z,42.05
2023-05-22T11:46:04.942Z,43.11
2023-05-22T11:47:04.964Z,42.74
2023-05-22T11:48:04.897Z,43.65
2023-05-22T11:49:04.874Z,44.73
2023-05-22T11:50:04.902Z,44.46
2023-05-22T11:51:04.868Z,44.14
2023-05-22T11:52:04.900Z,45.13
2023-05-22T11:53:04.843Z,43.84
2023-05-22T11:54:04.850Z,45.62
2023-05-22T11:55:04.844Z,44.43
2023-05-22T11:56:04.812Z,45.37
2023-05-22T11:57:04.876Z,45.57
2023-05-22T11:58:04.842Z,45.37
2023-05-22T11:59:04.770Z,45.96
2023-05-22T12:00:04.865Z,45.86
2023-05-22T12:01:04.778Z,45.27
2023-05-22T12:02:04.788Z,45.89
2023-05-22T12:03:04.820Z,45.68
2023-05-22T12:04:04.900Z,46.58
2023-05-22T12:05:04.713Z,47.47
2023-05-22T12:06:04.750Z,47.37
2023-05-22T12:07:04.828Z,46.16
2023-05-22T12:08:04.918Z,45.27
2023-05-22T12:09:04.688Z,45.57
2023-05-22T12:10:04.678Z,45.47
2023-05-22T12:11:04.625Z,45.84
2023-05-22T12:12:04.834Z,45.64
2023-05-22T12:13:04.596Z,46.14
2023-05-22T12:14:04.640Z,45.15
2023-05-22T12:15:04.639Z,45.15
2023-05-22T12:16:04.678Z,44.65
2023-05-22T12:17:04.652Z,45.96
2023-05-22T12:18:04.855Z,45.07
2023-05-22T12:19:04.672Z,45.27
2023-05-22T12:20:04.576Z,46.44
2023-05-22T12:21:04.599Z,45.25
2023-05-22T12:22:04.544Z,46.63
2023-05-22T12:23:04.548Z,46.33
2023-05-22T12:24:04.611Z,46.06
2023-05-22T12:25:04.510Z,46.75
2023-05-22T12:26:04.535Z,45.49
2023-05-22T12:27:04.621Z,45.51
2023-05-22T12:28:04.635Z,45.61
2023-05-22T12:29:04.500Z,45.21
2023-05-22T12:30:04.611Z,45.90
2023-05-22T12:31:04.453Z,45.41
2023-05-22T12:32:04.503Z,46.40
2023-05-22T12:33:04.498Z,44.82
2023-05-22T12:34:04.457Z,45.51
2023-05-22T12:35:04.411Z,44.40
2023-05-22T12:36:04.408Z,44.82
2023-05-22T12:37:04.551Z,45.41
2023-05-22T12:38:04.404Z,45.45
2023-05-22T12:39:04.464Z,45.45
2023-05-22T12:40:04.358Z,45.16
2023-05-22T12:41:04.630Z,45.16
2023-05-22T12:42:04.532Z,45.95
2023-05-22T12:43:04.460Z,45.85
2023-05-22T12:44:04.470Z,46.05
2023-05-22T12:45:04.499Z,46.77
2023-05-22T12:46:04.404Z,47.56
2023-05-22T12:47:04.316Z,47.68
2023-05-22T12:48:04.385Z,47.96
2023-05-22T12:49:04.252Z,47.96
2023-05-22T12:50:04.574Z,47.28
2023-05-22T12:51:04.258Z,47.58
2023-05-22T12:52:04.230Z,47.96